DNPO

Port Harcourt International Airport

Port Harcourt, Nigeria
METAR DNPO 191300Z 06003KT 7000 BKN013 33/21 Q1009 NOSIG
Observed Flight Rules
Jan-19 @ 13:00 UTC (3 hours ago) Marginal Visual Flight Rules
Wind Visibility Clouds
60° at 3 knots 7,001 meters
  • Broken at 1,300' AGL
Temperatures Readings
Current 33°C / 91°F
Dewpoint 21°C / 70°F
Humidity 49%
Altimeter 29.79" Hg
Pressure 1009 hPa
Elevation 18
METAR DNPO 191300Z 06003KT 7000 BKN013 33/21 Q1009 NOSIG
Observed Flight Rules
Jan-19 @ 13:00 UTC
(3 hours ago)
MVFR
Wind Visibility
60° at 3 knots 7,001 meters
Clouds
  • Broken at 1,300' AGL
Temperature Dewpoint
33°C / 91°F 21°C / 70°F
Humidity Altimeter Pressure
49% 29.79" Hg 1009 hPa